createdAt,value
2022-12-27T00:03:22.004Z,100128.31
2022-12-27T00:08:24.268Z,100132.63
2022-12-27T00:13:28.919Z,100070.88
2022-12-27T00:18:31.199Z,100138.94
2022-12-27T00:23:38.360Z,100186.91
2022-12-27T00:28:40.647Z,100124.75
2022-12-27T00:33:46.238Z,100134.06
2022-12-27T00:38:49.280Z,100105.56
2022-12-27T00:43:51.625Z,100019.53
2022-12-27T00:48:54.243Z,100139.22
2022-12-27T00:53:57.359Z,100144.06
2022-12-27T00:59:02.321Z,100127.88
2022-12-27T01:04:05.458Z,100037.50
2022-12-27T01:09:08.274Z,99950.94
2022-12-27T01:14:13.675Z,99759.78
2022-12-27T01:19:16.139Z,99759.00
2022-12-27T01:24:18.359Z,100101.38
2022-12-27T01:29:20.735Z,100022.56
2022-12-27T01:34:23.125Z,99992.00
2022-12-27T01:39:25.460Z,99992.09
2022-12-27T01:44:40.348Z,100086.75
2022-12-27T01:50:05.408Z,100026.78
2022-12-27T01:55:19.127Z,100020.16
2022-12-27T02:00:22.195Z,100071.47
2022-12-27T02:05:27.370Z,99926.28
2022-12-27T02:10:31.817Z,99988.44
2022-12-27T02:15:35.132Z,99977.91
2022-12-27T02:20:59.300Z,100055.50
2022-12-27T02:26:33.243Z,100042.50
2022-12-27T02:31:42.891Z,100052.28
2022-12-27T02:36:47.049Z,100011.53
2022-12-27T02:42:08.313Z,99982.16
2022-12-27T02:47:42.381Z,99889.44
2022-12-27T02:53:17.733Z,100005.75
2022-12-27T02:58:36.088Z,99933.78
2022-12-27T03:03:55.308Z,99929.31
2022-12-27T03:09:39.555Z,99968.72
2022-12-27T03:15:05.780Z,99934.38
2022-12-27T03:20:31.775Z,99907.56
2022-12-27T03:25:37.385Z,99876.59
2022-12-27T03:30:59.996Z,99907.13
2022-12-27T03:36:31.080Z,99924.94
2022-12-27T03:41:59.471Z,99927.47
2022-12-27T03:47:09.009Z,99913.19
2022-12-27T03:52:28.332Z,99822.91
2022-12-27T03:57:32.864Z,99870.81
2022-12-27T04:02:39.677Z,99870.06
2022-12-27T04:08:11.101Z,99897.00
2022-12-27T04:13:32.518Z,99756.63
2022-12-27T04:18:54.270Z,99867.97
2022-12-27T04:24:15.579Z,99788.19
2022-12-27T04:29:38.472Z,99815.19
2022-12-27T04:34:45.986Z,99824.66
2022-12-27T04:40:33.700Z,99718.09
2022-12-27T04:45:58.075Z,99784.78
2022-12-27T04:51:19.801Z,99777.59
2022-12-27T04:56:28.429Z,99752.94
2022-12-27T05:01:51.895Z,99766.88
2022-12-27T05:06:56.849Z,99726.84
2022-12-27T05:12:19.507Z,99713.69
2022-12-27T05:17:24.849Z,99794.22
2022-12-27T05:22:47.979Z,99628.25
2022-12-27T05:27:53.881Z,99720.28
2022-12-27T05:33:05.630Z,99752.09
2022-12-27T05:38:10.433Z,99721.09
2022-12-27T05:43:23.420Z,99776.75
2022-12-27T05:48:29.784Z,99759.06
2022-12-27T05:53:34.882Z,99771.75
2022-12-27T05:58:40.354Z,99691.28
2022-12-27T06:03:46.025Z,99715.69
2022-12-27T06:08:49.653Z,99711.03
2022-12-27T06:13:57.921Z,99721.63
2022-12-27T06:19:02.589Z,99725.94
2022-12-27T06:24:08.024Z,99695.78
2022-12-27T06:29:12.514Z,99749.94
2022-12-27T06:34:15.097Z,99711.19
2022-12-27T06:39:18.582Z,99728.06
2022-12-27T06:44:21.022Z,99721.41
2022-12-27T06:49:26.049Z,99682.81
2022-12-27T06:54:28.423Z,99646.88
2022-12-27T06:59:30.685Z,99688.75
2022-12-27T07:04:32.909Z,99617.59
2022-12-27T07:09:35.141Z,99661.53
2022-12-27T07:14:37.466Z,99598.47
2022-12-27T07:19:40.417Z,99627.00
2022-12-27T07:24:45.118Z,99632.41
2022-12-27T07:29:47.476Z,99644.69
2022-12-27T07:34:49.733Z,99601.03
2022-12-27T07:39:51.984Z,99664.84
2022-12-27T07:44:54.289Z,99629.69
2022-12-27T07:49:56.899Z,99598.50
2022-12-27T07:55:00.072Z,99612.84
2022-12-27T08:00:02.657Z,99578.69
2022-12-27T08:05:14.219Z,99566.16
2022-12-27T08:10:17.088Z,99593.94
2022-12-27T08:15:23.573Z,99618.25
2022-12-27T08:20:25.796Z,99562.06
2022-12-27T08:25:29.357Z,99597.94
2022-12-27T08:30:31.855Z,99533.81
2022-12-27T08:35:54.646Z,99509.50
2022-12-27T08:40:58.110Z,99492.44
2022-12-27T08:46:03.130Z,99453.25
2022-12-27T08:51:12.334Z,99532.72
2022-12-27T08:56:16.070Z,99421.88
2022-12-27T09:01:18.686Z,99395.66
2022-12-27T09:06:23.154Z,99469.41
2022-12-27T09:11:33.977Z,99491.25
2022-12-27T09:16:36.519Z,99465.16
2022-12-27T09:21:41.298Z,99445.09
2022-12-27T09:26:46.572Z,99487.22
2022-12-27T09:31:48.857Z,99456.06
2022-12-27T09:36:51.155Z,99504.06
2022-12-27T09:42:46.595Z,99445.44
2022-12-27T09:47:40.721Z,99484.88
2022-12-27T09:52:57.926Z,99412.78
2022-12-27T09:58:36.618Z,99444.00
2022-12-27T10:03:38.841Z,99450.97
2022-12-27T10:08:53.954Z,99433.81
2022-12-27T10:14:02.516Z,99396.28
2022-12-27T10:19:30.436Z,99444.78
2022-12-27T10:24:38.611Z,99341.13
2022-12-27T10:29:41.783Z,99304.78
2022-12-27T10:34:44.339Z,99385.34
2022-12-27T10:39:47.241Z,99398.97
2022-12-27T10:44:49.795Z,99331.22
2022-12-27T10:50:12.887Z,99345.25
2022-12-27T10:55:37.018Z,99361.19
2022-12-27T11:00:39.385Z,99330.38
2022-12-27T11:05:41.635Z,99298.13
2022-12-27T11:10:43.918Z,99356.97
2022-12-27T11:15:58.516Z,99253.22
2022-12-27T11:21:04.527Z,99310.97
2022-12-27T11:26:20.568Z,99263.69
2022-12-27T11:31:40.549Z,99206.44
2022-12-27T11:36:44.956Z,99331.19
2022-12-27T11:41:53.023Z,99295.72
2022-12-27T11:47:31.944Z,99231.09
2022-12-27T11:52:43.623Z,99315.50
2022-12-27T11:58:25.407Z,99271.97
2022-12-27T12:03:46.050Z,99300.28
2022-12-27T12:09:18.745Z,99271.84
2022-12-27T12:14:30.971Z,99231.31
2022-12-27T12:20:05.045Z,99213.28
2022-12-27T12:25:23.140Z,99275.16
2022-12-27T12:30:50.433Z,99268.47
2022-12-27T12:35:56.532Z,99258.88
2022-12-27T12:41:43.757Z,99122.34
2022-12-27T12:46:49.190Z,99248.84
2022-12-27T12:52:05.830Z,99256.94
2022-12-27T12:57:28.160Z,99238.56
2022-12-27T13:02:30.500Z,99239.13
2022-12-27T13:08:02.885Z,99192.66
2022-12-27T13:13:26.515Z,99241.25
2022-12-27T13:18:34.376Z,99229.16
2022-12-27T13:23:48.825Z,99226.84
2022-12-27T13:29:02.474Z,99218.31
2022-12-27T13:34:38.924Z,99217.84
2022-12-27T13:40:07.837Z,99180.81
2022-12-27T13:45:46.784Z,99178.75
2022-12-27T13:51:25.788Z,99197.28
2022-12-27T13:57:10.949Z,99134.97
2022-12-27T14:02:38.416Z,99210.03
2022-12-27T14:08:14.973Z,99203.34
2022-12-27T14:13:39.274Z,99200.06
2022-12-27T14:18:41.411Z,99205.91
2022-12-27T14:23:58.883Z,99191.53
2022-12-27T14:29:33.957Z,99088.22
2022-12-27T14:34:59.652Z,99172.19
2022-12-27T14:40:24.235Z,99171.72
2022-12-27T14:45:52.336Z,99164.75
2022-12-27T14:51:49.865Z,99162.38
2022-12-27T14:56:52.574Z,99073.06
2022-12-27T15:02:25.729Z,99167.00
2022-12-27T15:08:06.583Z,99160.28
2022-12-27T15:13:40.209Z,99149.34
2022-12-27T15:18:56.100Z,99147.59
2022-12-27T15:23:58.322Z,99139.09
2022-12-27T15:29:27.919Z,99052.53
2022-12-27T15:34:45.885Z,99069.75
2022-12-27T15:39:50.361Z,99014.50
2022-12-27T15:44:55.618Z,99100.34
2022-12-27T15:50:25.211Z,99094.66
2022-12-27T15:56:01.651Z,99091.38
2022-12-27T16:01:45.944Z,99013.38
2022-12-27T16:07:42.302Z,98924.84
2022-12-27T16:12:45.434Z,99013.69
2022-12-27T16:17:57.416Z,99078.00
2022-12-27T16:23:06.594Z,98930.41
2022-12-27T16:28:19.342Z,99075.63
2022-12-27T16:33:27.702Z,99057.94
2022-12-27T16:38:30.810Z,99044.06
2022-12-27T16:43:46.510Z,99018.13
2022-12-27T16:48:59.669Z,99045.53
2022-12-27T16:54:15.277Z,98964.06
2022-12-27T17:00:03.082Z,99040.78
2022-12-27T17:06:31.110Z,99036.63
2022-12-27T17:17:49.075Z,99010.28
2022-12-27T17:22:53.943Z,98915.81
2022-12-27T17:27:57.990Z,99003.56
2022-12-27T17:33:18.555Z,98999.41
2022-12-27T17:38:42.756Z,98985.50
2022-12-27T17:44:22.127Z,98931.41
2022-12-27T17:49:29.898Z,98872.34
2022-12-27T17:54:51.246Z,98954.41
2022-12-27T17:59:56.205Z,98890.06
2022-12-27T18:05:02.017Z,98937.06
2022-12-27T18:10:22.272Z,98958.28
2022-12-27T18:15:29.924Z,98882.47
2022-12-27T18:20:35.885Z,98950.00
2022-12-27T18:25:49.223Z,98830.38
2022-12-27T18:31:18.940Z,98908.63
2022-12-27T18:36:32.926Z,98877.25
2022-12-27T18:41:39.727Z,98926.44
2022-12-27T18:46:43.207Z,98898.69
2022-12-27T18:51:48.000Z,98872.59
2022-12-27T18:56:56.068Z,98826.09
2022-12-27T19:02:01.731Z,98806.31
2022-12-27T19:07:07.480Z,98897.09
2022-12-27T19:12:24.652Z,98811.50
2022-12-27T19:17:30.818Z,98867.38
2022-12-27T19:22:49.745Z,98906.94
2022-12-27T19:28:06.652Z,98727.06
2022-12-27T19:33:29.712Z,98745.50
2022-12-27T19:38:33.878Z,98855.75
2022-12-27T19:43:45.072Z,98821.97
2022-12-27T19:49:07.687Z,98837.66
2022-12-27T19:54:14.933Z,98826.66
2022-12-27T19:59:22.392Z,98800.69
2022-12-27T20:04:24.670Z,98833.19
2022-12-27T20:09:27.974Z,98824.69
2022-12-27T20:14:30.227Z,98785.94
2022-12-27T20:19:32.413Z,98779.22
2022-12-27T20:24:35.347Z,98814.31
2022-12-27T20:29:37.741Z,98819.81
2022-12-27T20:34:39.987Z,98745.00
2022-12-27T20:39:42.207Z,98815.88
2022-12-27T20:44:44.436Z,98781.81
2022-12-27T20:49:46.651Z,98813.69
2022-12-27T20:54:48.901Z,98769.25
2022-12-27T20:59:51.225Z,98777.16
2022-12-27T21:04:53.748Z,98718.94
2022-12-27T21:09:56.082Z,98609.72
2022-12-27T21:14:58.794Z,98690.22
2022-12-27T21:20:01.138Z,98752.81
2022-12-27T21:25:05.711Z,98744.91
2022-12-27T21:30:09.011Z,98779.94
2022-12-27T21:35:11.275Z,98779.41
2022-12-27T21:40:13.540Z,98803.03
2022-12-27T21:45:15.892Z,98772.66
2022-12-27T21:50:18.080Z,98779.53
2022-12-27T21:55:20.375Z,98737.75
2022-12-27T22:00:22.613Z,98793.00
2022-12-27T22:05:25.052Z,98778.44
2022-12-27T22:10:27.300Z,98782.09
2022-12-27T22:15:30.275Z,98689.31
2022-12-27T22:20:32.518Z,98716.00
2022-12-27T22:25:34.749Z,98673.31
2022-12-27T22:30:41.111Z,98763.25
2022-12-27T22:35:43.779Z,98736.06
2022-12-27T22:40:46.954Z,98684.91
2022-12-27T22:45:53.811Z,98660.59
2022-12-27T22:50:56.285Z,98571.66
2022-12-27T22:55:58.492Z,98723.56
2022-12-27T23:01:00.998Z,98746.50
2022-12-27T23:06:03.247Z,98712.50
2022-12-27T23:11:17.714Z,98706.56
2022-12-27T23:16:20.072Z,98634.09
2022-12-27T23:21:24.465Z,98730.13
2022-12-27T23:26:27.937Z,98643.84
2022-12-27T23:31:30.336Z,98738.16
2022-12-27T23:36:33.124Z,98508.09
2022-12-27T23:41:37.326Z,98604.94
2022-12-27T23:46:39.639Z,98712.50
2022-12-27T23:51:42.098Z,98694.13
2022-12-27T23:56:44.340Z,98676.34
